createdAt,value
2022-09-10T00:00:17.105Z,15.85
2022-09-10T00:02:47.359Z,15.83
2022-09-10T00:05:18.186Z,15.78
2022-09-10T00:07:48.420Z,15.75
2022-09-10T00:10:18.870Z,15.72
2022-09-10T00:12:49.187Z,15.69
2022-09-10T00:15:19.809Z,15.67
2022-09-10T00:17:50.110Z,15.65
2022-09-10T00:20:21.068Z,15.64
2022-09-10T00:22:51.225Z,15.62
2022-09-10T00:25:21.565Z,15.62
2022-09-10T00:27:52.110Z,15.60
2022-09-10T00:30:22.346Z,15.58
2022-09-10T00:32:53.201Z,15.57
2022-09-10T00:35:23.356Z,15.57
2022-09-10T00:37:53.733Z,15.56
2022-09-10T00:40:23.854Z,15.55
2022-09-10T00:42:53.975Z,15.56
2022-09-10T00:45:26.131Z,15.55
2022-09-10T00:48:00.521Z,15.54
2022-09-10T00:50:35.893Z,15.54
2022-09-10T00:53:09.265Z,15.53
2022-09-10T00:55:44.059Z,15.53
2022-09-10T00:58:16.231Z,15.52
2022-09-10T01:00:46.646Z,15.53
2022-09-10T01:03:22.464Z,15.53
2022-09-10T01:05:56.156Z,15.54
2022-09-10T01:08:27.422Z,15.53
2022-09-10T01:11:18.377Z,15.53
2022-09-10T01:14:05.801Z,15.52
2022-09-10T01:16:45.802Z,15.50
2022-09-10T01:19:35.593Z,15.46
2022-09-10T01:22:20.048Z,15.43
2022-09-10T01:24:57.406Z,15.41
2022-09-10T01:27:36.320Z,15.38
2022-09-10T01:30:15.529Z,15.36
2022-09-10T01:32:58.391Z,15.35
2022-09-10T01:35:36.540Z,15.35
2022-09-10T01:38:13.044Z,15.35
2022-09-10T01:40:44.905Z,15.38
2022-09-10T01:43:15.186Z,15.38
2022-09-10T01:45:59.332Z,15.40
2022-09-10T01:48:49.417Z,15.42
2022-09-10T01:51:26.990Z,15.45
2022-09-10T01:54:24.858Z,15.49
2022-09-10T01:57:06.622Z,15.52
2022-09-10T01:59:43.222Z,15.55
2022-09-10T02:02:17.846Z,15.58
2022-09-10T02:04:50.412Z,15.61
2022-09-10T02:07:23.713Z,15.63
2022-09-10T02:09:54.934Z,15.65
2022-09-10T02:12:25.766Z,15.68
2022-09-10T02:14:58.562Z,15.69
2022-09-10T02:17:33.728Z,15.70
2022-09-10T02:20:06.641Z,15.71
2022-09-10T02:22:39.798Z,15.71
2022-09-10T02:25:12.242Z,15.71
2022-09-10T02:27:44.069Z,15.69
2022-09-10T02:30:16.938Z,15.69
2022-09-10T02:32:47.913Z,15.68
2022-09-10T02:35:19.052Z,15.69
2022-09-10T02:37:50.579Z,15.69
2022-09-10T02:40:20.774Z,15.69
2022-09-10T02:42:51.053Z,15.68
2022-09-10T02:45:21.294Z,15.67
2022-09-10T02:47:51.737Z,15.65
2022-09-10T02:50:24.364Z,15.64
2022-09-10T02:52:55.494Z,15.63
2022-09-10T02:55:25.618Z,15.63
2022-09-10T02:57:56.315Z,15.61
2022-09-10T03:00:26.734Z,15.61
2022-09-10T03:03:02.280Z,15.60
2022-09-10T03:05:33.374Z,15.58
2022-09-10T03:08:04.099Z,15.59
2022-09-10T03:10:34.069Z,15.58
2022-09-10T03:13:04.428Z,15.59
2022-09-10T03:15:34.581Z,15.60
2022-09-10T03:18:05.709Z,15.60
2022-09-10T03:20:36.474Z,15.60
2022-09-10T03:23:07.077Z,15.61
2022-09-10T03:25:37.494Z,15.62
2022-09-10T03:28:07.987Z,15.63
2022-09-10T03:30:40.549Z,15.63
2022-09-10T03:33:11.694Z,15.63
2022-09-10T03:35:41.853Z,15.63
2022-09-10T03:38:11.979Z,15.64
2022-09-10T03:40:42.297Z,15.64
2022-09-10T03:43:13.055Z,15.64
2022-09-10T03:45:44.143Z,15.64
2022-09-10T03:48:14.260Z,15.63
2022-09-10T03:50:44.718Z,15.64
2022-09-10T03:53:16.225Z,15.62
2022-09-10T03:55:47.547Z,15.62
2022-09-10T03:58:19.372Z,15.60
2022-09-10T04:00:49.550Z,15.58
2022-09-10T04:03:20.195Z,15.55
2022-09-10T04:05:50.656Z,15.53
2022-09-10T04:08:21.515Z,15.52
2022-09-10T04:10:51.634Z,15.49
2022-09-10T04:13:22.369Z,15.48
2022-09-10T04:15:53.328Z,15.46
2022-09-10T04:18:23.515Z,15.44
2022-09-10T04:20:53.765Z,15.43
2022-09-10T04:23:24.118Z,15.42
2022-09-10T04:25:54.545Z,15.41
2022-09-10T04:28:25.086Z,15.41
2022-09-10T04:30:55.208Z,15.40
2022-09-10T04:33:25.326Z,15.39
2022-09-10T04:35:56.329Z,15.38
2022-09-10T04:38:26.525Z,15.34
2022-09-10T04:40:57.149Z,15.33
2022-09-10T04:43:27.547Z,15.32
2022-09-10T04:45:59.115Z,15.31
2022-09-10T04:48:29.759Z,15.31
2022-09-10T04:51:15.618Z,15.29
2022-09-10T04:53:47.105Z,15.27
2022-09-10T04:56:17.807Z,15.26
2022-09-10T04:58:48.502Z,15.26
2022-09-10T05:01:18.716Z,15.26
2022-09-10T05:03:48.966Z,15.26
2022-09-10T05:06:19.076Z,15.26
2022-09-10T05:08:49.231Z,15.26
2022-09-10T05:11:20.281Z,15.24
2022-09-10T05:13:50.539Z,15.22
2022-09-10T05:16:21.263Z,15.22
2022-09-10T05:18:53.066Z,15.23
2022-09-10T05:21:23.519Z,15.23
2022-09-10T05:23:53.877Z,15.25
2022-09-10T05:26:24.636Z,15.27
2022-09-10T05:28:54.936Z,15.29
2022-09-10T05:31:25.477Z,15.32
2022-09-10T05:33:56.033Z,15.35
2022-09-10T05:36:26.257Z,15.39
2022-09-10T05:38:56.441Z,15.41
2022-09-10T05:41:28.204Z,15.44
2022-09-10T05:43:58.383Z,15.48
2022-09-10T05:46:28.708Z,15.51
2022-09-10T05:48:59.410Z,15.53
2022-09-10T05:51:30.756Z,15.55
2022-09-10T05:54:00.874Z,15.57
2022-09-10T05:56:31.697Z,15.58
2022-09-10T05:59:03.958Z,15.60
2022-09-10T06:01:34.139Z,15.63
2022-09-10T06:04:05.373Z,15.67
2022-09-10T06:06:36.033Z,15.70
2022-09-10T06:09:06.775Z,15.73
2022-09-10T06:11:36.910Z,15.76
2022-09-10T06:14:07.478Z,15.78
2022-09-10T06:16:37.631Z,15.82
2022-09-10T06:19:08.482Z,15.85
2022-09-10T06:21:39.461Z,15.88
2022-09-10T06:24:10.004Z,15.91
2022-09-10T06:26:40.134Z,15.97
2022-09-10T06:29:11.805Z,16.02
2022-09-10T06:31:42.282Z,16.06
2022-09-10T06:34:12.915Z,16.12
2022-09-10T06:36:43.646Z,16.19
2022-09-10T06:39:14.246Z,16.26
2022-09-10T06:41:49.044Z,16.31
2022-09-10T06:44:22.365Z,16.37
2022-09-10T06:49:44.321Z,16.50
2022-09-10T06:52:14.743Z,16.55
2022-09-10T06:54:44.934Z,16.58
2022-09-10T06:57:15.416Z,16.60
2022-09-10T06:59:45.562Z,16.62
2022-09-10T07:02:15.807Z,16.65
2022-09-10T07:04:46.091Z,16.70
2022-09-10T07:07:16.812Z,16.74
2022-09-10T07:09:47.014Z,16.80
2022-09-10T07:12:17.384Z,16.87
2022-09-10T07:14:51.465Z,16.91
2022-09-10T07:17:21.933Z,16.95
2022-09-10T07:19:52.074Z,17.00
2022-09-10T07:22:22.543Z,17.04
2022-09-10T07:24:55.422Z,17.09
2022-09-10T07:27:25.890Z,17.15
2022-09-10T07:29:56.035Z,17.21
2022-09-10T07:32:26.269Z,17.28
2022-09-10T07:34:58.056Z,17.36
2022-09-10T07:37:28.275Z,17.43
2022-09-10T07:39:58.905Z,17.48
2022-09-10T07:42:30.099Z,17.51
2022-09-10T07:45:00.693Z,17.53
2022-09-10T07:47:31.366Z,17.55
2022-09-10T07:50:01.489Z,17.55
2022-09-10T07:52:31.699Z,17.55
2022-09-10T07:55:01.871Z,17.59
2022-09-10T07:57:32.060Z,17.61
2022-09-10T08:00:03.164Z,17.64
2022-09-10T08:02:33.289Z,17.65
2022-09-10T08:05:04.566Z,17.68
2022-09-10T08:07:35.047Z,17.71
2022-09-10T08:10:07.555Z,17.75
2022-09-10T08:12:39.233Z,17.79
2022-09-10T08:15:11.869Z,17.85
2022-09-10T08:17:42.581Z,17.90
2022-09-10T08:20:13.504Z,17.98
2022-09-10T08:22:43.636Z,18.04
2022-09-10T08:25:13.758Z,18.11
2022-09-10T08:27:43.883Z,18.18
2022-09-10T08:30:15.822Z,18.23
2022-09-10T08:32:45.930Z,18.27
2022-09-10T08:35:17.607Z,18.34
2022-09-10T08:37:48.741Z,18.41
2022-09-10T08:40:19.380Z,18.50
2022-09-10T08:42:52.884Z,18.58
2022-09-10T08:45:28.607Z,18.65
2022-09-10T08:48:04.410Z,18.73
2022-09-10T08:50:40.996Z,18.84
2022-09-10T08:53:25.916Z,18.96
2022-09-10T08:56:00.104Z,19.06
2022-09-10T08:58:37.608Z,19.16
2022-09-10T09:01:13.193Z,19.21
2022-09-10T09:03:47.224Z,19.24
2022-09-10T09:06:29.146Z,19.26
2022-09-10T09:09:02.075Z,19.30
2022-09-10T09:11:49.308Z,19.38
2022-09-10T09:14:30.885Z,19.50
2022-09-10T09:17:18.508Z,19.62
2022-09-10T09:19:59.029Z,19.75
2022-09-10T09:22:46.833Z,19.85
2022-09-10T09:25:24.528Z,19.90
2022-09-10T09:27:57.625Z,19.90
2022-09-10T09:30:32.058Z,19.88
2022-09-10T09:33:11.428Z,19.86
2022-09-10T09:35:47.829Z,19.83
2022-09-10T09:38:24.668Z,19.80
2022-09-10T09:40:58.027Z,19.76
2022-09-10T09:43:38.765Z,19.72
2022-09-10T09:46:14.595Z,19.69
2022-09-10T09:48:46.244Z,19.67
2022-09-10T09:51:21.057Z,19.67
2022-09-10T09:54:12.242Z,19.66
2022-09-10T09:56:47.531Z,19.65
2022-09-10T09:59:28.446Z,19.66
2022-09-10T10:02:05.573Z,19.66
2022-09-10T10:04:41.523Z,19.64
2022-09-10T10:07:13.300Z,19.60
2022-09-10T10:09:45.277Z,19.58
2022-09-10T10:12:22.680Z,19.58
2022-09-10T10:14:53.424Z,19.56
2022-09-10T10:17:40.950Z,19.55
2022-09-10T10:20:14.436Z,19.53
2022-09-10T10:22:46.402Z,19.53
2022-09-10T10:25:43.057Z,19.53
2022-09-10T10:28:26.004Z,19.53
2022-09-10T10:31:00.594Z,19.52
2022-09-10T10:33:35.250Z,19.54
2022-09-10T10:36:14.163Z,19.58
2022-09-10T10:38:50.406Z,19.63
2022-09-10T10:41:52.989Z,19.70
2022-09-10T10:44:34.049Z,19.82
2022-09-10T10:47:19.958Z,19.91
2022-09-10T10:50:03.354Z,20.02
2022-09-10T10:52:46.710Z,20.16
2022-09-10T10:55:24.406Z,20.28
2022-09-10T10:58:15.575Z,20.42
2022-09-10T11:00:51.802Z,20.53
2022-09-10T11:03:30.069Z,20.62
2022-09-10T11:06:07.792Z,20.66
2022-09-10T11:08:42.255Z,20.69
2022-09-10T11:11:17.568Z,20.73
2022-09-10T11:13:52.585Z,20.76
2022-09-10T11:16:27.508Z,20.75
2022-09-10T11:19:02.796Z,20.73
2022-09-10T11:21:40.374Z,20.73
2022-09-10T11:24:17.112Z,20.75
2022-09-10T11:26:52.018Z,20.77
2022-09-10T11:29:33.645Z,20.81
2022-09-10T11:32:09.614Z,20.87
2022-09-10T11:34:49.777Z,20.92
2022-09-10T11:37:27.719Z,20.99
2022-09-10T11:40:01.405Z,21.04
2022-09-10T11:42:40.097Z,21.09
2022-09-10T11:45:20.078Z,21.11
2022-09-10T11:47:57.060Z,21.11
2022-09-10T11:50:34.919Z,21.10
2022-09-10T11:53:07.525Z,21.12
2022-09-10T11:55:50.431Z,21.15
2022-09-10T11:58:29.287Z,21.20
2022-09-10T12:01:09.723Z,21.22
2022-09-10T12:04:12.786Z,21.23
2022-09-10T12:06:55.054Z,21.23
2022-09-10T12:09:31.773Z,21.23
2022-09-10T12:12:07.817Z,21.21
2022-09-10T12:14:41.517Z,21.25
2022-09-10T12:17:18.349Z,21.25
2022-09-10T12:19:53.252Z,21.25
2022-09-10T12:22:29.344Z,21.22
2022-09-10T12:25:05.722Z,21.20
2022-09-10T12:27:50.457Z,21.20
2022-09-10T12:30:59.798Z,21.19
2022-09-10T12:34:16.151Z,21.18
2022-09-10T12:37:22.772Z,21.18
2022-09-10T12:40:31.321Z,21.19
2022-09-10T12:43:21.811Z,21.21
2022-09-10T12:46:17.363Z,21.24
2022-09-10T12:48:50.762Z,21.26
2022-09-10T12:51:33.545Z,21.29
2022-09-10T12:54:21.896Z,21.31
2022-09-10T12:57:22.487Z,21.34
2022-09-10T13:00:17.995Z,21.37
2022-09-10T13:02:54.890Z,21.38
2022-09-10T13:05:30.093Z,21.38
2022-09-10T13:08:08.541Z,21.39
2022-09-10T13:10:39.919Z,21.41
2022-09-10T13:13:33.852Z,21.40
2022-09-10T13:16:06.462Z,21.39
2022-09-10T13:18:38.064Z,21.37
2022-09-10T13:21:42.312Z,21.36
2022-09-10T13:24:38.260Z,21.33
2022-09-10T13:27:22.965Z,21.30
2022-09-10T13:30:10.523Z,21.30
2022-09-10T13:32:46.810Z,21.30
2022-09-10T13:35:58.097Z,21.31
2022-09-10T13:38:58.602Z,21.33
2022-09-10T13:41:55.470Z,21.36
2022-09-10T13:44:46.361Z,21.39
2022-09-10T13:47:21.918Z,21.45
2022-09-10T13:49:59.274Z,21.52
2022-09-10T13:52:30.242Z,21.57
2022-09-10T13:55:01.665Z,21.61
2022-09-10T13:57:34.768Z,21.64
2022-09-10T14:00:16.102Z,21.69
2022-09-10T14:02:48.654Z,21.75
2022-09-10T14:05:35.784Z,21.81
2022-09-10T14:08:12.774Z,21.86
2022-09-10T14:10:55.873Z,21.89
2022-09-10T14:13:34.391Z,21.92
2022-09-10T14:16:09.312Z,21.94
2022-09-10T14:18:45.697Z,21.95
2022-09-10T14:21:27.019Z,21.97
2022-09-10T14:23:59.383Z,21.98
2022-09-10T14:26:33.822Z,22.00
2022-09-10T14:29:23.227Z,22.00
2022-09-10T14:31:54.425Z,22.01
2022-09-10T14:34:34.052Z,22.00
2022-09-10T14:37:37.779Z,21.97
2022-09-10T14:40:18.895Z,21.92
2022-09-10T14:42:50.468Z,21.89
2022-09-10T14:45:46.233Z,21.84
2022-09-10T14:48:32.443Z,21.78
2022-09-10T14:51:17.522Z,21.72
2022-09-10T14:53:51.229Z,21.67
2022-09-10T14:56:32.694Z,21.63
2022-09-10T14:59:05.763Z,21.59
2022-09-10T15:01:36.118Z,21.55
2022-09-10T15:04:06.418Z,21.51
2022-09-10T15:06:36.777Z,21.47
2022-09-10T15:09:07.783Z,21.42
2022-09-10T15:11:41.878Z,21.37
2022-09-10T15:14:16.914Z,21.31
2022-09-10T15:16:47.030Z,21.24
2022-09-10T15:19:17.487Z,21.17
2022-09-10T15:21:48.416Z,21.08
2022-09-10T15:24:21.325Z,21.02
2022-09-10T15:26:52.676Z,20.94
2022-09-10T15:29:23.373Z,20.87
2022-09-10T15:31:53.502Z,20.80
2022-09-10T15:34:23.668Z,20.74
2022-09-10T15:36:53.907Z,20.70
2022-09-10T15:39:24.049Z,20.66
2022-09-10T15:41:54.174Z,20.64
2022-09-10T15:44:24.445Z,20.63
2022-09-10T15:46:54.581Z,20.61
2022-09-10T15:49:25.591Z,20.60
2022-09-10T15:51:55.711Z,20.59
2022-09-10T15:54:26.122Z,20.59
2022-09-10T15:56:56.360Z,20.58
2022-09-10T15:59:26.506Z,20.58
2022-09-10T16:01:56.700Z,20.57
2022-09-10T16:04:30.703Z,20.56
2022-09-10T16:07:04.367Z,20.57
2022-09-10T16:09:34.533Z,20.57
2022-09-10T16:12:05.719Z,20.56
2022-09-10T16:14:36.328Z,20.55
2022-09-10T16:17:10.582Z,20.52
2022-09-10T16:19:41.158Z,20.49
2022-09-10T16:22:11.287Z,20.45
2022-09-10T16:24:41.705Z,20.42
2022-09-10T16:27:11.818Z,20.39
2022-09-10T16:29:43.639Z,20.35
2022-09-10T16:32:13.896Z,20.31
2022-09-10T16:34:44.371Z,20.27
2022-09-10T16:37:14.586Z,20.23
2022-09-10T16:39:44.725Z,20.19
2022-09-10T16:42:14.874Z,20.15
2022-09-10T16:44:45.294Z,20.12
2022-09-10T16:47:15.443Z,20.06
2022-09-10T16:49:45.922Z,20.01
2022-09-10T16:52:16.143Z,19.98
2022-09-10T16:54:47.317Z,19.95
2022-09-10T16:57:17.658Z,19.91
2022-09-10T16:59:48.554Z,19.88
2022-09-10T17:02:18.727Z,19.86
2022-09-10T17:04:49.399Z,19.84
2022-09-10T17:07:20.040Z,19.80
2022-09-10T17:09:50.509Z,19.77
2022-09-10T17:12:21.033Z,19.74
2022-09-10T17:14:51.123Z,19.70
2022-09-10T17:17:21.328Z,19.67
2022-09-10T17:19:51.594Z,19.64
2022-09-10T17:22:21.729Z,19.61
2022-09-10T17:24:53.900Z,19.58
2022-09-10T17:27:25.700Z,19.56
2022-09-10T17:29:55.989Z,19.53
2022-09-10T17:32:26.506Z,19.50
2022-09-10T17:34:56.889Z,19.46
2022-09-10T17:37:27.431Z,19.43
2022-09-10T17:39:57.623Z,19.40
2022-09-10T17:42:27.814Z,19.36
2022-09-10T17:44:58.049Z,19.32
2022-09-10T17:47:28.299Z,19.27
2022-09-10T17:49:58.426Z,19.24
2022-09-10T17:52:28.573Z,19.20
2022-09-10T17:54:59.070Z,19.17
2022-09-10T17:57:29.229Z,19.13
2022-09-10T17:59:59.736Z,19.10
2022-09-10T18:02:29.922Z,19.06
2022-09-10T18:05:00.742Z,19.04
2022-09-10T18:07:31.236Z,19.01
2022-09-10T18:10:01.362Z,18.97
2022-09-10T18:12:31.565Z,18.92
2022-09-10T18:15:01.681Z,18.87
2022-09-10T18:17:31.997Z,18.82
2022-09-10T18:20:02.638Z,18.78
2022-09-10T18:22:34.412Z,18.74
2022-09-10T18:25:04.768Z,18.72
2022-09-10T18:27:35.093Z,18.69
2022-09-10T18:30:06.832Z,18.66
2022-09-10T18:32:36.929Z,18.62
2022-09-10T18:35:08.736Z,18.59
2022-09-10T18:37:39.659Z,18.56
2022-09-10T18:40:12.186Z,18.51
2022-09-10T18:42:46.538Z,18.48
2022-09-10T18:45:17.301Z,18.44
2022-09-10T18:47:48.495Z,18.39
2022-09-10T18:50:18.728Z,18.36
2022-09-10T18:52:48.869Z,18.32
2022-09-10T18:55:19.071Z,18.28
2022-09-10T18:57:49.181Z,18.24
2022-09-10T19:00:20.026Z,18.21
2022-09-10T19:02:50.186Z,18.20
2022-09-10T19:05:20.411Z,18.18
2022-09-10T19:07:52.039Z,18.16
2022-09-10T19:10:22.171Z,18.14
2022-09-10T19:12:52.681Z,18.13
2022-09-10T19:15:22.836Z,18.14
2022-09-10T19:17:53.741Z,18.14
2022-09-10T19:20:26.453Z,18.13
2022-09-10T19:22:56.828Z,18.12
2022-09-10T19:25:26.933Z,18.11
2022-09-10T19:27:58.082Z,18.11
2022-09-10T19:30:30.593Z,18.11
2022-09-10T19:33:05.117Z,18.11
2022-09-10T19:35:36.582Z,18.11
2022-09-10T19:38:27.182Z,18.11
2022-09-10T19:41:06.560Z,18.11
2022-09-10T19:43:37.702Z,18.10
2022-09-10T19:46:10.950Z,18.09
2022-09-10T19:48:42.130Z,18.08
2022-09-10T19:51:15.349Z,18.06
2022-09-10T19:53:45.797Z,18.04
2022-09-10T19:56:20.701Z,18.01
2022-09-10T19:58:53.289Z,17.97
2022-09-10T20:01:26.449Z,17.94
2022-09-10T20:03:57.129Z,17.90
2022-09-10T20:06:28.403Z,17.89
2022-09-10T20:08:58.892Z,17.85
2022-09-10T20:11:31.329Z,17.83
2022-09-10T20:14:04.000Z,17.82
2022-09-10T20:16:36.354Z,17.78
2022-09-10T20:19:07.747Z,17.74
2022-09-10T20:21:38.440Z,17.71
2022-09-10T20:24:09.745Z,17.69
2022-09-10T20:26:41.206Z,17.67
2022-09-10T20:29:13.924Z,17.65
2022-09-10T20:31:46.297Z,17.62
2022-09-10T20:34:19.555Z,17.59
2022-09-10T20:36:51.945Z,17.55
2022-09-10T20:39:25.150Z,17.50
2022-09-10T20:41:55.454Z,17.45
2022-09-10T20:44:26.118Z,17.42
2022-09-10T20:46:56.278Z,17.39
2022-09-10T20:49:26.449Z,17.36
2022-09-10T20:51:57.002Z,17.36
2022-09-10T20:54:27.386Z,17.35
2022-09-10T20:56:57.531Z,17.34
2022-09-10T20:59:29.179Z,17.34
2022-09-10T21:01:59.677Z,17.32
2022-09-10T21:04:29.941Z,17.31
2022-09-10T21:07:00.559Z,17.31
2022-09-10T21:09:30.673Z,17.31
2022-09-10T21:12:00.863Z,17.31
2022-09-10T21:14:32.262Z,17.31
2022-09-10T21:17:02.403Z,17.30
2022-09-10T21:19:32.534Z,17.28
2022-09-10T21:22:03.666Z,17.26
2022-09-10T21:24:33.803Z,17.24
2022-09-10T21:27:04.115Z,17.23
2022-09-10T21:29:34.213Z,17.21
2022-09-10T21:32:05.044Z,17.18
2022-09-10T21:34:35.774Z,17.16
2022-09-10T21:37:06.048Z,17.13
2022-09-10T21:39:36.238Z,17.08
2022-09-10T21:42:07.021Z,17.04
2022-09-10T21:44:37.202Z,17.00
2022-09-10T21:47:07.740Z,16.98
2022-09-10T21:49:37.870Z,16.97
2022-09-10T21:52:08.233Z,16.94
2022-09-10T21:54:38.762Z,16.92
2022-09-10T21:57:11.442Z,16.90
2022-09-10T21:59:41.945Z,16.89
2022-09-10T22:02:12.121Z,16.87
2022-09-10T22:04:43.042Z,16.83
2022-09-10T22:07:14.271Z,16.76
2022-09-10T22:09:44.420Z,16.72
2022-09-10T22:12:14.574Z,16.67
2022-09-10T22:14:44.905Z,16.63
2022-09-10T22:17:15.078Z,16.58
2022-09-10T22:19:45.195Z,16.55
2022-09-10T22:22:15.338Z,16.53
2022-09-10T22:24:45.456Z,16.51
2022-09-10T22:27:16.656Z,16.51
2022-09-10T22:29:47.166Z,16.51
2022-09-10T22:32:17.525Z,16.52
2022-09-10T22:34:48.986Z,16.51
2022-09-10T22:37:19.178Z,16.50
2022-09-10T22:39:49.368Z,16.50
2022-09-10T22:42:20.453Z,16.49
2022-09-10T22:44:50.833Z,16.44
2022-09-10T22:47:21.211Z,16.47
2022-09-10T22:49:51.326Z,16.47
2022-09-10T22:52:21.416Z,16.45
2022-09-10T22:54:51.676Z,16.44
2022-09-10T22:57:21.760Z,16.43
2022-09-10T22:59:51.876Z,16.42
2022-09-10T23:02:21.998Z,16.42
2022-09-10T23:04:52.186Z,16.41
2022-09-10T23:07:22.320Z,16.38
2022-09-10T23:09:52.725Z,16.36
2022-09-10T23:12:22.864Z,16.34
2022-09-10T23:14:53.041Z,16.29
2022-09-10T23:17:23.361Z,16.23
2022-09-10T23:19:53.873Z,16.19
2022-09-10T23:22:24.288Z,16.18
2022-09-10T23:24:55.055Z,16.09
2022-09-10T23:27:25.335Z,16.05
2022-09-10T23:29:56.538Z,15.99
2022-09-10T23:32:26.895Z,15.93
2022-09-10T23:34:57.026Z,15.88
2022-09-10T23:37:27.183Z,15.84
2022-09-10T23:39:57.343Z,15.79
2022-09-10T23:42:28.005Z,15.76
2022-09-10T23:44:58.156Z,15.72
2022-09-10T23:47:28.300Z,15.70
2022-09-10T23:49:58.430Z,15.68
2022-09-10T23:52:29.546Z,15.66
2022-09-10T23:55:00.293Z,15.62
2022-09-10T23:57:30.426Z,15.62
